Japan Airlines Virtual Airport Information Service

Bangkok Suvarnabhumi Airport

ICAO: VTBS Country: Thailand
Latitude: 13.6811 Longitude: 100.747
Latest Arrival : UAE384 (OMDB-VTBS) Latest Departure : KAL652 (VTBS-RKSI)


WX CaptureLIVE
Data provided by noaa.gov | Fetched at 16:31:34

METAR : VTBS 291600Z 32003KT 9000 -RA FEW020 BKN100 27/26 Q1008 NOSIG

TAF : VTBS 291100Z 2912/3018 20008KT 9999 FEW020 SCT040 TEMPO 2912/2916 23010G25KT 5000 TSRA FEW018CB SCT030 BKN100 BECMG 2918/2920 26008KT BECMG 3000/3002 20008KT TEMPO 3008/3014 23010G25KT 4000 TSRA FEW018CB SCT030 BKN100


Runway Data for VTBS
Data provided by openaviationdata.com

Runway ID Mag Var Hdg Length Elevation Surface ILS Freq ILS Id ILS Slope
01L 0 14° 12139 ft 5 ft Asphalt 109.1 ISWS 0
01R 0 14° 12139 ft 5 ft Asphalt 110.1 ISES 0
19L 0 194.4° 12139 ft 5 ft Asphalt 110.5 ISEN 0
19R 0 194.4° 12139 ft 5 ft Asphalt 109.5 ISWN 0

Bangkok Suvarnabhumi Airport, Thailand
Use only for reference purposes



Not for navigational purposes.